Time;durP1;ratioP1;P1;durP2;ratioP2;P2;SDS_P1;SDS_P2;PMS_P1;PMS_P2;Temp;Humidity;BMP_temperature;BMP_pressure;BME280_temperature;BME280_humidity;BME280_pressure;Samples;Min_cycle;Max_cycle;Signal;HPM_P1;HPM_P2
2022/03/07 00:02:08;;;;;;;5.10;2.65;;;;;;;;;;5078844;28;20642;-77
2022/03/07 00:04:34;;;;;;;3.50;2.30;;;;;;;;;;5075878;28;20052;-77
2022/03/07 00:07:00;;;;;;;4.18;2.53;;;;;;;;;;5074421;28;21179;-78
2022/03/07 00:09:26;;;;;;;3.85;2.80;;;;;;;;;;5077882;28;20820;-77
2022/03/07 00:11:52;;;;;;;4.18;2.42;;;;;;;;;;5079854;28;20081;-77
2022/03/07 00:14:18;;;;;;;3.47;2.38;;;;;;;;;;5074562;28;20044;-77
2022/03/07 00:16:45;;;;;;;3.03;2.50;;;;;;;;;;5075065;28;20069;-77
2022/03/07 00:19:11;;;;;;;2.75;2.10;;;;;;;;;;5078456;28;20517;-78
2022/03/07 00:21:37;;;;;;;4.18;2.40;;;;;;;;;;5075337;28;20052;-77
2022/03/07 00:24:04;;;;;;;4.10;2.60;;;;;;;;;;5073603;28;20507;-77
2022/03/07 00:26:30;;;;;;;3.00;2.30;;;;;;;;;;5074691;28;20108;-78
2022/03/07 00:28:56;;;;;;;4.55;2.38;;;;;;;;;;5061175;28;20675;-76
2022/03/07 00:31:23;;;;;;;3.10;2.25;;;;;;;;;;5080384;28;20051;-76
2022/03/07 00:33:50;;;;;;;3.75;2.65;;;;;;;;;;5078757;28;20789;-76
2022/03/07 00:36:17;;;;;;;7.60;2.80;;;;;;;;;;5056726;28;20613;-74
2022/03/07 00:38:43;;;;;;;4.60;2.60;;;;;;;;;;5063626;28;20052;-77
2022/03/07 00:41:09;;;;;;;5.90;2.78;;;;;;;;;;5081672;28;20056;-76
2022/03/07 00:43:36;;;;;;;5.03;2.60;;;;;;;;;;5079974;28;20043;-77
2022/03/07 00:46:02;;;;;;;5.18;2.60;;;;;;;;;;5075268;28;20397;-77
2022/03/07 00:48:28;;;;;;;4.15;2.50;;;;;;;;;;5078653;28;20195;-76
2022/03/07 00:50:54;;;;;;;6.55;2.75;;;;;;;;;;5078129;28;20096;-77
2022/03/07 00:53:23;;;;;;;7.80;2.92;;;;;;;;;;5081499;28;20471;-76
2022/03/07 00:55:50;;;;;;;3.65;2.42;;;;;;;;;;5060622;28;20043;-77
2022/03/07 00:58:16;;;;;;;3.58;2.45;;;;;;;;;;5059231;28;20051;-76
2022/03/07 01:00:43;;;;;;;3.05;2.30;;;;;;;;;;5062979;28;20051;-76
2022/03/07 01:03:12;;;;;;;3.92;2.47;;;;;;;;;;5081591;28;20060;-76
2022/03/07 01:05:38;;;;;;;5.18;2.80;;;;;;;;;;5077881;28;20647;-77
2022/03/07 01:08:05;;;;;;;5.55;2.58;;;;;;;;;;5066542;28;22022;-77
2022/03/07 01:10:31;;;;;;;3.78;2.50;;;;;;;;;;5081546;28;20052;-77
2022/03/07 01:12:57;;;;;;;6.50;2.65;;;;;;;;;;5081335;28;20489;-78
2022/03/07 01:15:23;;;;;;;7.38;2.70;;;;;;;;;;5077089;28;20088;-75
2022/03/07 01:17:49;;;;;;;3.63;2.60;;;;;;;;;;5076718;28;20063;-77
2022/03/07 01:20:15;;;;;;;3.78;2.67;;;;;;;;;;5080736;28;20389;-75
2022/03/07 01:22:41;;;;;;;7.32;2.67;;;;;;;;;;5082246;28;20056;-78
2022/03/07 01:25:08;;;;;;;3.65;2.63;;;;;;;;;;5077950;28;20048;-77
2022/03/07 01:27:34;;;;;;;4.10;2.60;;;;;;;;;;5077767;28;20526;-77
2022/03/07 01:30:00;;;;;;;3.28;2.40;;;;;;;;;;5081293;28;20070;-76
2022/03/07 01:32:26;;;;;;;3.55;2.38;;;;;;;;;;5081627;28;20054;-77
2022/03/07 01:34:52;;;;;;;5.13;2.97;;;;;;;;;;5078615;28;20048;-77
2022/03/07 01:37:18;;;;;;;3.90;2.40;;;;;;;;;;5079246;28;20048;-76
2022/03/07 01:39:44;;;;;;;3.60;2.75;;;;;;;;;;5084598;28;20576;-76
2022/03/07 01:42:11;;;;;;;6.07;2.70;;;;;;;;;;5087199;28;20236;-77
2022/03/07 01:44:37;;;;;;;6.40;2.72;;;;;;;;;;5081853;28;21679;-76
2022/03/07 01:47:05;;;;;;;4.07;2.47;;;;;;;;;;5080666;28;20096;-78
2022/03/07 01:49:31;;;;;;;4.28;3.10;;;;;;;;;;5084187;28;20039;-77
2022/03/07 01:51:58;;;;;;;6.60;2.78;;;;;;;;;;5083739;28;20069;-77
2022/03/07 01:54:25;;;;;;;3.10;2.35;;;;;;;;;;5084328;28;20046;-76
2022/03/07 01:56:53;;;;;;;3.13;2.55;;;;;;;;;;5084009;28;20507;-76
2022/03/07 01:59:21;;;;;;;7.07;2.83;;;;;;;;;;5085341;28;20125;-77
2022/03/07 02:01:48;;;;;;;4.97;2.60;;;;;;;;;;5086031;28;20073;-78
2022/03/07 02:04:14;;;;;;;4.15;2.30;;;;;;;;;;5088675;28;20457;-76
2022/03/07 02:06:41;;;;;;;3.35;2.42;;;;;;;;;;5086291;28;20259;-77
2022/03/07 02:09:08;;;;;;;6.28;2.60;;;;;;;;;;5084559;28;20058;-79
2022/03/07 02:11:35;;;;;;;4.72;2.65;;;;;;;;;;5083796;28;20069;-77
2022/03/07 02:14:17;;;;;;;4.13;2.78;;;;;;;;;;5066287;28;20511;-77
2022/03/07 02:16:44;;;;;;;4.05;2.50;;;;;;;;;;5065686;28;20112;-80
2022/03/07 02:19:10;;;;;;;4.35;2.63;;;;;;;;;;5065214;28;21288;-76
2022/03/07 02:21:42;;;;;;;4.90;2.83;;;;;;;;;;5081885;28;20043;-76
2022/03/07 02:24:08;;;;;;;6.00;2.72;;;;;;;;;;5058918;28;20404;-78
2022/03/07 02:26:33;;;;;;;5.22;2.80;;;;;;;;;;5075029;28;20075;-80
2022/03/07 02:28:59;;;;;;;3.65;2.90;;;;;;;;;;5078322;28;20051;-77
2022/03/07 02:31:26;;;;;;;3.55;2.40;;;;;;;;;;5077589;28;20484;-78
2022/03/07 02:33:53;;;;;;;4.80;2.75;;;;;;;;;;5059138;28;20287;-78
2022/03/07 02:36:18;;;;;;;4.90;2.47;;;;;;;;;;5081097;28;20116;-78
2022/03/07 02:38:45;;;;;;;4.53;2.40;;;;;;;;;;5084800;28;20378;-78
2022/03/07 02:41:10;;;;;;;5.93;2.40;;;;;;;;;;5083496;28;20511;-78
2022/03/07 02:43:36;;;;;;;4.13;2.50;;;;;;;;;;5076932;28;20135;-78
2022/03/07 02:46:02;;;;;;;4.68;2.53;;;;;;;;;;5076032;28;20052;-77
2022/03/07 02:48:28;;;;;;;5.03;2.53;;;;;;;;;;5076184;28;20052;-77
2022/03/07 02:50:55;;;;;;;4.10;2.45;;;;;;;;;;5079117;28;20124;-78
2022/03/07 02:53:21;;;;;;;4.80;2.33;;;;;;;;;;5081671;28;20131;-78
2022/03/07 02:55:47;;;;;;;3.45;2.50;;;;;;;;;;5080454;28;20500;-76
2022/03/07 02:58:13;;;;;;;3.50;2.40;;;;;;;;;;5079339;28;20067;-76
2022/03/07 03:00:39;;;;;;;6.05;2.40;;;;;;;;;;5079426;28;20059;-78
2022/03/07 03:03:05;;;;;;;3.05;2.28;;;;;;;;;;5082981;28;20067;-78
2022/03/07 03:05:31;;;;;;;3.60;2.25;;;;;;;;;;5079689;28;20091;-77
2022/03/07 03:07:57;;;;;;;4.47;2.30;;;;;;;;;;5080317;28;20058;-76
2022/03/07 03:10:23;;;;;;;3.45;2.42;;;;;;;;;;5081188;28;20051;-77
2022/03/07 03:12:50;;;;;;;3.75;2.22;;;;;;;;;;5083681;28;20058;-77
2022/03/07 03:15:16;;;;;;;3.78;2.33;;;;;;;;;;5064458;28;20058;-76
2022/03/07 03:17:42;;;;;;;4.50;2.60;;;;;;;;;;5081809;28;20082;-78
2022/03/07 03:20:12;;;;;;;4.50;2.55;;;;;;;;;;5083007;28;20047;-77
2022/03/07 03:22:44;;;;;;;3.75;2.67;;;;;;;;;;5084068;28;20081;-78
2022/03/07 03:25:11;;;;;;;4.55;2.67;;;;;;;;;;5078796;28;20078;-77
2022/03/07 03:27:38;;;;;;;3.05;2.40;;;;;;;;;;5077555;28;20055;-76
2022/03/07 03:30:07;;;;;;;4.53;2.45;;;;;;;;;;5079273;28;20224;-78
2022/03/07 03:32:33;;;;;;;4.05;2.97;;;;;;;;;;5078796;28;20055;-79
2022/03/07 03:34:59;;;;;;;4.57;2.50;;;;;;;;;;5072904;28;20073;-76
2022/03/07 03:37:25;;;;;;;3.90;2.60;;;;;;;;;;5075582;28;20385;-78
2022/03/07 03:39:51;;;;;;;3.53;2.60;;;;;;;;;;5076895;28;20082;-78
2022/03/07 03:42:17;;;;;;;3.88;3.00;;;;;;;;;;5079195;28;20636;-78
2022/03/07 03:44:44;;;;;;;3.72;2.72;;;;;;;;;;5075420;28;20477;-77
2022/03/07 03:47:10;;;;;;;6.80;3.10;;;;;;;;;;5075645;28;20051;-77
2022/03/07 03:49:36;;;;;;;3.65;2.75;;;;;;;;;;5077257;28;20491;-76
2022/03/07 03:52:03;;;;;;;3.50;2.65;;;;;;;;;;5076064;28;20488;-78
2022/03/07 03:54:28;;;;;;;4.53;2.60;;;;;;;;;;5073168;28;20048;-78
2022/03/07 03:56:54;;;;;;;3.95;2.95;;;;;;;;;;5073227;28;20051;-78
2022/03/07 03:59:20;;;;;;;3.75;2.65;;;;;;;;;;5076208;28;20715;-77
2022/03/07 04:01:47;;;;;;;4.20;2.75;;;;;;;;;;5081404;28;20087;-78
2022/03/07 04:04:14;;;;;;;3.90;3.03;;;;;;;;;;5080723;28;20059;-78
2022/03/07 04:06:41;;;;;;;4.97;2.70;;;;;;;;;;5077712;28;20525;-78
2022/03/07 04:09:17;;;;;;;4.20;2.80;;;;;;;;;;5079986;28;20054;-78
2022/03/07 04:11:43;;;;;;;3.03;2.67;;;;;;;;;;5082260;28;20105;-76
2022/03/07 04:14:10;;;;;;;6.68;3.10;;;;;;;;;;5080673;28;20526;-77
2022/03/07 04:16:38;;;;;;;3.25;2.58;;;;;;;;;;5076949;28;20108;-76
2022/03/07 04:19:06;;;;;;;3.05;2.65;;;;;;;;;;5082027;28;20568;-76
2022/03/07 04:21:33;;;;;;;3.45;2.65;;;;;;;;;;5080084;28;20056;-77
2022/03/07 04:23:59;;;;;;;4.90;2.90;;;;;;;;;;5079658;28;20079;-77
2022/03/07 04:26:25;;;;;;;5.97;3.00;;;;;;;;;;5077269;28;20431;-76
2022/03/07 04:28:51;;;;;;;4.25;2.60;;;;;;;;;;5080507;28;20128;-77
2022/03/07 04:31:18;;;;;;;3.33;2.65;;;;;;;;;;5086149;28;20511;-76
2022/03/07 04:33:43;;;;;;;2.67;2.28;;;;;;;;;;5063900;28;20058;-77
2022/03/07 04:36:10;;;;;;;3.42;2.30;;;;;;;;;;5074742;28;20143;-78
2022/03/07 04:38:36;;;;;;;2.88;2.13;;;;;;;;;;5080210;28;20051;-78
2022/03/07 04:41:02;;;;;;;2.65;2.20;;;;;;;;;;5081515;28;20293;-77
2022/03/07 04:43:28;;;;;;;3.13;2.20;;;;;;;;;;5081777;28;20404;-76
2022/03/07 04:45:54;;;;;;;3.95;2.28;;;;;;;;;;5081410;28;20234;-76
2022/03/07 04:48:21;;;;;;;3.67;2.40;;;;;;;;;;5080587;28;20048;-77
2022/03/07 04:50:47;;;;;;;2.80;2.03;;;;;;;;;;5085532;28;20055;-77
2022/03/07 04:53:13;;;;;;;2.67;2.00;;;;;;;;;;5090965;28;20061;-77
2022/03/07 04:55:40;;;;;;;3.10;2.20;;;;;;;;;;5086197;28;20039;-77
2022/03/07 04:58:05;;;;;;;5.57;2.08;;;;;;;;;;5078517;28;20055;-76
2022/03/07 05:00:32;;;;;;;3.05;1.90;;;;;;;;;;5079092;28;20055;-79
2022/03/07 05:02:57;;;;;;;2.88;2.00;;;;;;;;;;5079400;28;20067;-77
2022/03/07 05:05:23;;;;;;;3.53;2.10;;;;;;;;;;5079522;28;20043;-76
2022/03/07 05:07:49;;;;;;;3.00;2.03;;;;;;;;;;5079450;28;20535;-76
2022/03/07 05:10:19;;;;;;;2.30;1.90;;;;;;;;;;5079234;28;20078;-77
2022/03/07 05:12:46;;;;;;;4.25;2.10;;;;;;;;;;5081317;28;21538;-76
2022/03/07 05:15:12;;;;;;;3.35;2.10;;;;;;;;;;5081884;28;20043;-78
2022/03/07 05:17:51;;;;;;;4.45;2.00;;;;;;;;;;5077177;28;20392;-75
2022/03/07 05:20:18;;;;;;;2.65;1.92;;;;;;;;;;5078126;27;20064;-77
2022/03/07 05:22:44;;;;;;;2.20;1.73;;;;;;;;;;5080728;28;20716;-78
2022/03/07 05:25:12;;;;;;;3.38;1.67;;;;;;;;;;5078101;28;20583;-77
2022/03/07 05:27:38;;;;;;;3.55;1.85;;;;;;;;;;5077837;28;20360;-77
2022/03/07 05:30:05;;;;;;;2.22;1.70;;;;;;;;;;5062831;28;20099;-77
2022/03/07 05:32:32;;;;;;;2.42;1.58;;;;;;;;;;5060582;28;20047;-79
2022/03/07 05:34:59;;;;;;;5.07;1.90;;;;;;;;;;5076335;27;20059;-77
2022/03/07 05:37:25;;;;;;;1.95;1.75;;;;;;;;;;5059039;28;20959;-77
2022/03/07 05:39:51;;;;;;;3.33;1.60;;;;;;;;;;5081413;28;20051;-78
2022/03/07 05:42:17;;;;;;;2.15;1.60;;;;;;;;;;5081714;28;20051;-79
2022/03/07 05:44:43;;;;;;;2.42;1.70;;;;;;;;;;5077464;28;20196;-77
2022/03/07 05:47:09;;;;;;;2.28;1.70;;;;;;;;;;5072243;27;20047;-78
2022/03/07 05:49:35;;;;;;;2.83;1.83;;;;;;;;;;5077222;28;20082;-76
2022/03/07 05:52:01;;;;;;;1.80;1.60;;;;;;;;;;5077350;28;20059;-77
2022/03/07 05:54:27;;;;;;;4.53;1.75;;;;;;;;;;5077517;28;20047;-77
2022/03/07 05:56:53;;;;;;;2.70;1.65;;;;;;;;;;5070346;28;20428;-79
2022/03/07 05:59:19;;;;;;;3.10;1.80;;;;;;;;;;5079945;28;20326;-79
2022/03/07 06:01:45;;;;;;;2.00;1.58;;;;;;;;;;5059972;28;20063;-78
2022/03/07 06:04:11;;;;;;;3.22;1.60;;;;;;;;;;5078877;28;20044;-78
2022/03/07 06:06:38;;;;;;;4.18;1.75;;;;;;;;;;5070704;28;20093;-78
2022/03/07 06:09:03;;;;;;;2.30;1.67;;;;;;;;;;5079929;27;20285;-77
2022/03/07 06:11:29;;;;;;;2.67;1.90;;;;;;;;;;5076915;28;20135;-76
2022/03/07 06:13:55;;;;;;;2.38;1.60;;;;;;;;;;5078324;28;20057;-77
2022/03/07 06:16:21;;;;;;;2.33;1.70;;;;;;;;;;5075127;28;20056;-78
2022/03/07 06:18:47;;;;;;;2.72;1.70;;;;;;;;;;5061289;28;21348;-81
2022/03/07 06:21:13;;;;;;;2.55;1.80;;;;;;;;;;5080262;28;20174;-79
2022/03/07 06:23:39;;;;;;;2.72;1.90;;;;;;;;;;5078615;28;20054;-80
2022/03/07 06:26:06;;;;;;;3.42;1.80;;;;;;;;;;5082985;28;20301;-75
2022/03/07 06:28:32;;;;;;;3.67;1.80;;;;;;;;;;5080624;28;20055;-79
2022/03/07 06:30:59;;;;;;;4.53;1.80;;;;;;;;;;5082935;28;20389;-76
2022/03/07 06:33:25;;;;;;;4.97;2.08;;;;;;;;;;5064080;28;20381;-77
2022/03/07 06:35:51;;;;;;;3.70;2.08;;;;;;;;;;5080254;28;20412;-81
2022/03/07 06:38:19;;;;;;;3.70;2.00;;;;;;;;;;5063467;28;20063;-78
2022/03/07 06:40:45;;;;;;;2.55;1.95;;;;;;;;;;5085461;28;20059;-77
2022/03/07 06:43:12;;;;;;;2.50;1.77;;;;;;;;;;5083414;28;20051;-78
2022/03/07 06:45:39;;;;;;;4.75;2.25;;;;;;;;;;5081601;28;20160;-78
2022/03/07 06:48:06;;;;;;;2.78;1.90;;;;;;;;;;5076946;28;20104;-80
2022/03/07 06:50:32;;;;;;;3.28;1.85;;;;;;;;;;5083695;27;20535;-79
2022/03/07 06:52:59;;;;;;;3.58;2.03;;;;;;;;;;5083471;28;20055;-79
2022/03/07 06:55:25;;;;;;;2.95;1.75;;;;;;;;;;5063004;28;20044;-78
2022/03/07 06:57:52;;;;;;;2.83;1.92;;;;;;;;;;5079833;27;20511;-78
2022/03/07 07:00:18;;;;;;;2.50;2.22;;;;;;;;;;5088621;28;20774;-79
2022/03/07 07:02:45;;;;;;;4.13;2.00;;;;;;;;;;5088304;28;20871;-77
2022/03/07 07:05:13;;;;;;;4.60;2.55;;;;;;;;;;5090940;28;20431;-77
2022/03/07 07:07:39;;;;;;;4.53;2.25;;;;;;;;;;5090010;28;21016;-76
2022/03/07 07:10:07;;;;;;;3.95;2.25;;;;;;;;;;5092286;28;20079;-79
2022/03/07 07:12:34;;;;;;;6.00;2.50;;;;;;;;;;5085368;28;20491;-79
2022/03/07 07:15:00;;;;;;;3.35;2.20;;;;;;;;;;5084516;28;20122;-80
2022/03/07 07:17:26;;;;;;;3.38;2.00;;;;;;;;;;5080838;28;20486;-80
2022/03/07 07:19:52;;;;;;;2.58;2.05;;;;;;;;;;5081228;28;20568;-80
2022/03/07 07:22:17;;;;;;;4.55;2.45;;;;;;;;;;5080656;28;20551;-77
2022/03/07 07:24:44;;;;;;;6.15;2.45;;;;;;;;;;5080742;28;20047;-73
2022/03/07 07:27:10;;;;;;;4.45;2.35;;;;;;;;;;5070768;28;20522;-79
2022/03/07 07:29:36;;;;;;;6.13;2.45;;;;;;;;;;5078372;28;20124;-69
2022/03/07 07:32:02;;;;;;;7.95;2.33;;;;;;;;;;5077939;28;20047;-75
2022/03/07 07:34:28;;;;;;;4.10;2.45;;;;;;;;;;5075826;28;20055;-76
2022/03/07 07:36:55;;;;;;;4.53;2.47;;;;;;;;;;5077157;27;20693;-80
2022/03/07 07:39:21;;;;;;;3.92;2.35;;;;;;;;;;5063534;28;20040;-78
2022/03/07 07:41:47;;;;;;;4.43;2.40;;;;;;;;;;5087474;28;20101;-74
2022/03/07 07:44:15;;;;;;;5.00;2.60;;;;;;;;;;5085011;28;20114;-72
2022/03/07 07:46:41;;;;;;;5.90;2.70;;;;;;;;;;5081201;28;20569;-72
2022/03/07 07:49:07;;;;;;;4.28;2.70;;;;;;;;;;5086526;28;20116;-70
2022/03/07 07:51:33;;;;;;;5.28;2.53;;;;;;;;;;5086932;28;20481;-71
2022/03/07 07:54:00;;;;;;;6.28;2.90;;;;;;;;;;5089237;28;20108;-75
2022/03/07 07:56:27;;;;;;;5.53;3.05;;;;;;;;;;5084599;28;20050;-78
2022/03/07 07:58:53;;;;;;;4.18;2.65;;;;;;;;;;5087626;28;20059;-77
2022/03/07 08:01:19;;;;;;;5.15;2.45;;;;;;;;;;5088165;28;20489;-75
2022/03/07 08:03:45;;;;;;;5.30;2.40;;;;;;;;;;5088695;28;20058;-77
2022/03/07 08:06:11;;;;;;;6.13;2.80;;;;;;;;;;5084308;28;20051;-78
2022/03/07 08:08:37;;;;;;;5.10;2.95;;;;;;;;;;5080025;28;20107;-76
2022/03/07 08:11:03;;;;;;;6.93;2.90;;;;;;;;;;5087955;28;21085;-75
2022/03/07 08:13:29;;;;;;;4.63;3.28;;;;;;;;;;5087805;28;20055;-76
2022/03/07 08:15:55;;;;;;;5.40;2.85;;;;;;;;;;5087096;28;20393;-78
2022/03/07 08:18:21;;;;;;;5.65;3.00;;;;;;;;;;5080327;28;20055;-76
2022/03/07 08:20:47;;;;;;;5.28;3.42;;;;;;;;;;5083819;28;20379;-75
2022/03/07 08:23:13;;;;;;;4.80;3.60;;;;;;;;;;5086302;28;20518;-75
2022/03/07 08:25:39;;;;;;;6.53;3.70;;;;;;;;;;5087382;28;20048;-77
2022/03/07 08:28:05;;;;;;;5.15;3.30;;;;;;;;;;5074422;28;20196;-75
2022/03/07 08:30:33;;;;;;;7.18;3.97;;;;;;;;;;5087672;28;20039;-77
2022/03/07 08:33:00;;;;;;;4.55;3.55;;;;;;;;;;5086004;28;20465;-76
2022/03/07 08:35:26;;;;;;;5.55;3.92;;;;;;;;;;5085973;27;20048;-77
2022/03/07 08:37:53;;;;;;;5.30;4.10;;;;;;;;;;5076452;28;20510;-77
2022/03/07 08:40:21;;;;;;;6.35;4.35;;;;;;;;;;5088162;28;20051;-75
2022/03/07 08:42:48;;;;;;;6.93;4.40;;;;;;;;;;5090857;28;20052;-74
2022/03/07 08:45:14;;;;;;;9.77;4.03;;;;;;;;;;5091862;28;20880;-76
2022/03/07 08:47:40;;;;;;;9.23;4.35;;;;;;;;;;5082253;28;20055;-74
2022/03/07 08:50:09;;;;;;;8.40;4.15;;;;;;;;;;5090847;28;20083;-74
2022/03/07 08:52:36;;;;;;;6.18;3.97;;;;;;;;;;5091048;28;20193;-75
2022/03/07 08:55:03;;;;;;;6.25;3.80;;;;;;;;;;5088915;28;20708;-77
2022/03/07 08:57:29;;;;;;;9.07;4.50;;;;;;;;;;5080487;28;20096;-76
2022/03/07 08:59:55;;;;;;;6.82;4.30;;;;;;;;;;5091055;28;20051;-74
2022/03/07 09:02:21;;;;;;;8.57;4.20;;;;;;;;;;5069074;28;20067;-73
2022/03/07 09:04:47;;;;;;;5.95;3.83;;;;;;;;;;5065800;28;20052;-76
2022/03/07 09:07:12;;;;;;;8.82;4.50;;;;;;;;;;5059123;28;20077;-74
2022/03/07 09:09:39;;;;;;;6.22;3.80;;;;;;;;;;5067087;28;20078;-74
2022/03/07 09:12:07;;;;;;;6.57;3.50;;;;;;;;;;5067595;28;20048;-74
2022/03/07 09:14:34;;;;;;;4.97;3.47;;;;;;;;;;5065649;28;20509;-76
2022/03/07 09:17:00;;;;;;;6.65;3.30;;;;;;;;;;5055549;28;20048;-77
2022/03/07 09:19:26;;;;;;;6.10;3.30;;;;;;;;;;5067583;28;20527;-78
2022/03/07 09:21:52;;;;;;;7.10;3.08;;;;;;;;;;5068635;28;20052;-76
2022/03/07 09:24:19;;;;;;;9.25;3.78;;;;;;;;;;5066469;28;20479;-75
2022/03/07 09:26:45;;;;;;;7.22;3.95;;;;;;;;;;5059752;28;20230;-78
2022/03/07 09:29:11;;;;;;;11.25;3.58;;;;;;;;;;5068936;28;20895;-74
2022/03/07 09:31:38;;;;;;;4.60;3.75;;;;;;;;;;5068500;28;20143;-76
2022/03/07 09:34:04;;;;;;;5.25;3.53;;;;;;;;;;5065172;28;20040;-76
2022/03/07 09:36:30;;;;;;;5.32;3.85;;;;;;;;;;5058373;28;20055;-80
2022/03/07 09:38:56;;;;;;;7.95;4.40;;;;;;;;;;5060616;28;20056;-75
2022/03/07 09:41:22;;;;;;;8.32;4.20;;;;;;;;;;5066142;28;20134;-76
2022/03/07 09:43:49;;;;;;;8.75;5.05;;;;;;;;;;5064468;28;20123;-78
2022/03/07 09:46:16;;;;;;;6.53;4.70;;;;;;;;;;5063731;28;20464;-75
2022/03/07 09:48:43;;;;;;;6.10;4.38;;;;;;;;;;5059720;28;20208;-75
2022/03/07 09:51:09;;;;;;;6.47;4.03;;;;;;;;;;5065340;28;20451;-76
2022/03/07 09:53:35;;;;;;;5.88;4.22;;;;;;;;;;5065546;28;20051;-76
2022/03/07 09:56:01;;;;;;;10.23;4.47;;;;;;;;;;5064295;28;20124;-75
2022/03/07 09:58:27;;;;;;;10.43;4.57;;;;;;;;;;5057536;28;20051;-75
2022/03/07 10:01:03;;;;;;;9.95;4.55;;;;;;;;;;5064826;28;20066;-75
2022/03/07 10:03:30;;;;;;;7.38;4.47;;;;;;;;;;5085896;28;20043;-75
2022/03/07 10:05:56;;;;;;;7.53;4.47;;;;;;;;;;5085373;28;20067;-75
2022/03/07 10:08:28;;;;;;;7.90;4.38;;;;;;;;;;5078338;28;20082;-78
2022/03/07 10:10:55;;;;;;;6.80;4.18;;;;;;;;;;5086845;28;20047;-77
2022/03/07 10:13:23;;;;;;;8.15;4.47;;;;;;;;;;5087029;28;20052;-75
2022/03/07 10:16:01;;;;;;;9.45;4.40;;;;;;;;;;5080774;28;20047;-76
2022/03/07 10:18:28;;;;;;;8.90;4.00;;;;;;;;;;5078558;28;20060;-75
2022/03/07 10:20:59;;;;;;;7.63;4.18;;;;;;;;;;5065505;28;20056;-76
2022/03/07 10:23:27;;;;;;;12.10;4.00;;;;;;;;;;5083916;27;20059;-77
2022/03/07 10:26:08;;;;;;;8.18;4.60;;;;;;;;;;5083955;28;20520;-77
2022/03/07 10:28:36;;;;;;;7.50;4.40;;;;;;;;;;5077120;28;20050;-75
2022/03/07 10:31:15;;;;;;;5.88;3.97;;;;;;;;;;5083812;27;20055;-74
2022/03/07 10:33:42;;;;;;;5.65;3.65;;;;;;;;;;5082924;28;20048;-74
2022/03/07 10:36:08;;;;;;;7.05;4.32;;;;;;;;;;5046395;28;20109;-76
2022/03/07 10:38:34;;;;;;;7.70;4.00;;;;;;;;;;5076908;28;20047;-78
2022/03/07 10:41:00;;;;;;;9.27;3.80;;;;;;;;;;5081460;28;20418;-77
2022/03/07 10:43:26;;;;;;;5.00;3.30;;;;;;;;;;5083683;28;20141;-77
2022/03/07 10:45:58;;;;;;;5.30;3.92;;;;;;;;;;5083575;28;20093;-80
2022/03/07 10:48:28;;;;;;;7.88;4.10;;;;;;;;;;5075822;28;20388;-78
2022/03/07 10:50:57;;;;;;;6.35;3.88;;;;;;;;;;5083564;28;20524;-77
2022/03/07 10:53:24;;;;;;;7.72;3.70;;;;;;;;;;5085245;28;20046;-75
2022/03/07 10:55:59;;;;;;;5.20;3.53;;;;;;;;;;5082973;28;20418;-76
2022/03/07 10:58:25;;;;;;;10.63;3.65;;;;;;;;;;5075606;28;20734;-76
2022/03/07 11:00:54;;;;;;;8.60;4.13;;;;;;;;;;5085124;28;20055;-77
2022/03/07 11:03:24;;;;;;;6.72;4.03;;;;;;;;;;5086807;28;20556;-77
2022/03/07 11:05:50;;;;;;;10.13;4.05;;;;;;;;;;5083321;28;20688;-78
2022/03/07 11:08:20;;;;;;;6.88;4.68;;;;;;;;;;5074563;28;20055;-75
2022/03/07 11:10:49;;;;;;;5.95;3.92;;;;;;;;;;5084715;28;20150;-75
2022/03/07 11:13:16;;;;;;;7.40;4.20;;;;;;;;;;5066944;28;20515;-75
2022/03/07 11:15:45;;;;;;;6.65;4.18;;;;;;;;;;5084856;28;20052;-75
2022/03/07 11:18:12;;;;;;;7.82;4.00;;;;;;;;;;5086930;28;20079;-77
2022/03/07 11:20:43;;;;;;;9.57;4.32;;;;;;;;;;5089033;28;21075;-76
2022/03/07 11:23:14;;;;;;;6.30;4.30;;;;;;;;;;5087330;28;20212;-75
2022/03/07 11:25:40;;;;;;;5.97;4.20;;;;;;;;;;5085638;28;20544;-75
2022/03/07 11:28:07;;;;;;;12.80;5.05;;;;;;;;;;5081011;28;20182;-75
2022/03/07 11:30:42;;;;;;;5.68;4.13;;;;;;;;;;5082494;28;20040;-74
2022/03/07 11:33:12;;;;;;;;;;;;;;;;;;5086395;28;20050;-76
2022/03/07 11:35:43;;;;;;;7.20;3.90;;;;;;;;;;5080979;28;19947;-74
2022/03/07 11:38:14;;;;;;;6.78;4.00;;;;;;;;;;5080210;28;20047;-74
2022/03/07 11:41:00;;;;;;;8.85;4.45;;;;;;;;;;5082725;28;20044;-75
2022/03/07 11:43:28;;;;;;;8.80;4.70;;;;;;;;;;5083857;28;20527;-78
2022/03/07 11:45:55;;;;;;;5.88;4.05;;;;;;;;;;5080896;28;20074;-77
2022/03/07 11:48:21;;;;;;;8.48;4.43;;;;;;;;;;5061702;28;21193;-76
2022/03/07 11:50:48;;;;;;;7.57;4.75;;;;;;;;;;5082265;28;20052;-76
2022/03/07 11:53:15;;;;;;;13.02;4.38;;;;;;;;;;5083209;28;20595;-75
2022/03/07 11:55:46;;;;;;;6.03;4.43;;;;;;;;;;5082733;28;20356;-73
2022/03/07 11:58:13;;;;;;;7.57;4.57;;;;;;;;;;5080730;28;20059;-77
2022/03/07 12:00:39;;;;;;;9.95;4.88;;;;;;;;;;5064444;28;20104;-76
2022/03/07 12:03:11;;;;;;;11.27;4.90;;;;;;;;;;5084415;28;20135;-77
2022/03/07 12:05:37;;;;;;;8.60;4.80;;;;;;;;;;5064902;28;20054;-75
2022/03/07 12:08:15;;;;;;;8.45;4.22;;;;;;;;;;5079909;28;20274;-75
2022/03/07 12:11:02;;;;;;;10.82;4.63;;;;;;;;;;5083042;28;20055;-76
2022/03/07 12:13:30;;;;;;;9.75;4.90;;;;;;;;;;5085301;28;20065;-78
2022/03/07 12:15:57;;;;;;;12.55;4.82;;;;;;;;;;5063077;28;20921;-78
2022/03/07 12:18:24;;;;;;;9.63;5.03;;;;;;;;;;5081743;28;20611;-75
2022/03/07 12:20:54;;;;;;;8.30;4.18;;;;;;;;;;5064409;28;20060;-75
2022/03/07 12:23:22;;;;;;;9.38;4.30;;;;;;;;;;5087503;28;20055;-80
2022/03/07 12:25:57;;;;;;;8.07;4.28;;;;;;;;;;5088616;28;20402;-75
2022/03/07 12:28:27;;;;;;;14.63;4.07;;;;;;;;;;5082634;28;20043;-77
2022/03/07 12:30:54;;;;;;;12.90;4.28;;;;;;;;;;5087523;28;20544;-75
2022/03/07 12:33:20;;;;;;;6.32;4.07;;;;;;;;;;5087338;28;20553;-76
2022/03/07 12:35:46;;;;;;;7.13;4.05;;;;;;;;;;5085485;28;20051;-75
2022/03/07 12:38:12;;;;;;;6.90;4.40;;;;;;;;;;5081043;28;20054;-81
2022/03/07 12:40:38;;;;;;;9.23;4.63;;;;;;;;;;5085508;28;20036;-78
2022/03/07 12:43:06;;;;;;;8.18;4.30;;;;;;;;;;5085814;28;20051;-76
2022/03/07 12:45:33;;;;;;;5.25;3.70;;;;;;;;;;5086128;28;20496;-77
2022/03/07 12:48:01;;;;;;;6.38;3.95;;;;;;;;;;5080448;28;20060;-75
2022/03/07 12:50:30;;;;;;;7.00;3.80;;;;;;;;;;5085227;28;20055;-75
2022/03/07 12:52:56;;;;;;;8.45;4.10;;;;;;;;;;5085875;28;21178;-77
2022/03/07 12:55:22;;;;;;;8.07;4.18;;;;;;;;;;5085917;27;20051;-77
2022/03/07 12:57:56;;;;;;;7.93;3.90;;;;;;;;;;5082535;28;20105;-74
2022/03/07 13:00:22;;;;;;;10.18;4.57;;;;;;;;;;5083343;28;20121;-75
2022/03/07 13:02:50;;;;;;;8.07;4.30;;;;;;;;;;5082685;28;20160;-76
2022/03/07 13:05:23;;;;;;;6.88;4.10;;;;;;;;;;5084129;28;20090;-76
2022/03/07 13:07:56;;;;;;;8.10;4.40;;;;;;;;;;5081965;28;20279;-75
2022/03/07 13:10:23;;;;;;;8.52;4.57;;;;;;;;;;5087045;28;20051;-77
2022/03/07 13:12:56;;;;;;;9.80;4.63;;;;;;;;;;5087159;28;20520;-75
2022/03/07 13:15:22;;;;;;;9.07;4.40;;;;;;;;;;5066603;28;20163;-77
2022/03/07 13:18:09;;;;;;;8.90;4.53;;;;;;;;;;5080970;28;20044;-75
2022/03/07 13:20:36;;;;;;;7.55;4.80;;;;;;;;;;5085011;28;20473;-78
2022/03/07 13:23:04;;;;;;;8.80;5.03;;;;;;;;;;5086764;28;20475;-78
2022/03/07 13:25:42;;;;;;;8.50;4.82;;;;;;;;;;5085399;28;20058;-77
2022/03/07 13:28:10;;;;;;;7.13;4.72;;;;;;;;;;5082286;28;20149;-77
2022/03/07 13:30:37;;;;;;;8.43;5.07;;;;;;;;;;5085307;28;20767;-75
2022/03/07 13:33:06;;;;;;;10.98;5.00;;;;;;;;;;5085496;28;20036;-77
2022/03/07 13:35:32;;;;;;;10.13;5.18;;;;;;;;;;5083483;28;20270;-78
2022/03/07 13:37:59;;;;;;;9.65;5.30;;;;;;;;;;5083472;28;20055;-76
2022/03/07 13:40:27;;;;;;;10.52;5.13;;;;;;;;;;5086168;28;20044;-77
2022/03/07 13:42:55;;;;;;;8.95;5.45;;;;;;;;;;5085003;27;20586;-76
2022/03/07 13:45:28;;;;;;;13.00;5.25;;;;;;;;;;5067592;27;20404;-76
2022/03/07 13:47:56;;;;;;;10.98;5.30;;;;;;;;;;5081329;28;20295;-78
2022/03/07 13:50:24;;;;;;;9.65;5.70;;;;;;;;;;5084637;28;20560;-76
2022/03/07 13:53:10;;;;;;;11.27;6.05;;;;;;;;;;5083497;28;20455;-77
2022/03/07 13:55:39;;;;;;;9.30;5.25;;;;;;;;;;5081671;27;20043;-75
2022/03/07 13:58:11;;;;;;;11.00;5.30;;;;;;;;;;5080117;28;20043;-78
2022/03/07 14:00:38;;;;;;;9.88;4.88;;;;;;;;;;5066305;28;20054;-77
2022/03/07 14:03:07;;;;;;;10.93;5.00;;;;;;;;;;5066184;28;20109;-77
2022/03/07 14:05:46;;;;;;;9.20;5.07;;;;;;;;;;5083238;28;20120;-77
2022/03/07 14:08:14;;;;;;;8.20;5.07;;;;;;;;;;5081237;27;20086;-75
2022/03/07 14:10:41;;;;;;;9.85;5.47;;;;;;;;;;5085230;28;20069;-78
2022/03/07 14:13:07;;;;;;;8.80;5.63;;;;;;;;;;5084124;28;20050;-78
2022/03/07 14:15:35;;;;;;;10.63;5.20;;;;;;;;;;5085052;28;20108;-77
2022/03/07 14:18:15;;;;;;;10.07;5.47;;;;;;;;;;5080869;27;20043;-78
2022/03/07 14:20:43;;;;;;;14.57;7.18;;;;;;;;;;5083079;28;20496;-77
2022/03/07 14:23:13;;;;;;;9.77;5.15;;;;;;;;;;5087013;28;20051;-78
2022/03/07 14:25:40;;;;;;;9.43;5.35;;;;;;;;;;5086076;28;20094;-77
2022/03/07 14:28:06;;;;;;;10.98;5.30;;;;;;;;;;5082350;28;20096;-78
2022/03/07 14:30:33;;;;;;;7.72;4.70;;;;;;;;;;5086034;28;20067;-74
2022/03/07 14:32:59;;;;;;;11.30;4.53;;;;;;;;;;5085891;27;20047;-78
2022/03/07 14:35:25;;;;;;;16.25;4.40;;;;;;;;;;5086555;28;20132;-77
2022/03/07 14:37:51;;;;;;;13.15;4.28;;;;;;;;;;5081339;27;20051;-74
2022/03/07 14:40:19;;;;;;;14.27;4.88;;;;;;;;;;5085494;28;20082;-81
2022/03/07 14:42:47;;;;;;;13.95;5.45;;;;;;;;;;5083825;28;20043;-79
2022/03/07 14:45:16;;;;;;;14.45;4.75;;;;;;;;;;5083556;28;20054;-78